Time;durP1;ratioP1;P1;durP2;ratioP2;P2;SDS_P1;SDS_P2;PMS_P1;PMS_P2;Temp;Humidity;BMP_temperature;BMP_pressure;BME280_temperature;BME280_humidity;BME280_pressure;Samples;Min_cycle;Max_cycle;Signal;HPM_P1;HPM_P2
2023/07/15 00:01:18;;;;;;;5.55;2.83;;;;;;;22.31;62.92;96618.81;5113245;28;20142;-66
2023/07/15 00:03:46;;;;;;;8.77;3.40;;;;;;;22.31;62.75;96613.50;5113185;28;20052;-67
2023/07/15 00:06:13;;;;;;;8.95;3.42;;;;;;;22.30;61.79;96617.13;5113509;28;20130;-66
2023/07/15 00:08:40;;;;;;;6.25;3.47;;;;;;;22.32;62.63;96615.19;5112948;28;20044;-65
2023/07/15 00:11:13;;;;;;;5.38;3.38;;;;;;;22.31;62.36;96613.50;5113191;28;20048;-66
2023/07/15 00:13:40;;;;;;;7.78;3.63;;;;;;;22.26;61.10;96612.19;5113212;28;20443;-64
2023/07/15 00:16:07;;;;;;;6.68;3.38;;;;;;;22.28;62.32;96623.59;5113120;28;20118;-66
2023/07/15 00:18:35;;;;;;;8.20;3.17;;;;;;;22.24;63.29;96625.66;5113103;28;20062;-65
2023/07/15 00:21:16;;;;;;;4.03;3.08;;;;;;;22.16;63.34;96625.47;5113150;28;20050;-64
2023/07/15 00:23:43;;;;;;;9.43;3.10;;;;;;;22.08;64.07;96624.28;5113241;28;20092;-66
2023/07/15 00:26:11;;;;;;;4.70;2.85;;;;;;;21.84;61.05;96628.03;5113106;28;20455;-64
2023/07/15 00:28:38;;;;;;;7.53;3.15;;;;;;;21.59;61.58;96623.84;5112998;28;20109;-65
2023/07/15 00:31:12;;;;;;;5.38;3.10;;;;;;;21.53;62.38;96627.00;5115922;28;20043;-64
2023/07/15 00:33:40;;;;;;;6.15;3.08;;;;;;;21.57;62.81;96623.97;5116621;28;20122;-65
2023/07/15 00:36:09;;;;;;;8.05;3.50;;;;;;;21.63;63.73;96625.28;5116674;28;20126;-65
2023/07/15 00:38:38;;;;;;;6.03;3.20;;;;;;;21.61;63.61;96627.22;5116665;28;20043;-66
2023/07/15 00:41:06;;;;;;;4.53;2.90;;;;;;;21.63;64.33;96630.59;5116553;28;20100;-65
2023/07/15 00:43:55;;;;;;;5.30;3.30;;;;;;;21.61;64.26;96634.38;5116507;28;20458;-64
2023/07/15 00:46:52;;;;;;;5.75;2.88;;;;;;;21.53;64.18;96635.00;5116384;28;20512;-66
2023/07/15 00:49:21;;;;;;;7.72;3.35;;;;;;;21.49;64.80;96631.72;5113264;28;20573;-64
2023/07/15 00:51:51;;;;;;;4.53;2.95;;;;;;;21.42;64.80;96627.88;5116381;28;20050;-65
2023/07/15 00:54:20;;;;;;;5.77;2.97;;;;;;;21.43;64.95;96626.91;5116303;28;20051;-64
2023/07/15 00:56:48;;;;;;;4.43;3.28;;;;;;;21.43;65.12;96625.09;5116318;28;20051;-65
2023/07/15 00:59:17;;;;;;;6.75;3.20;;;;;;;21.45;65.12;96632.94;5116178;28;20044;-65
2023/07/15 01:01:46;;;;;;;7.43;3.17;;;;;;;21.46;65.37;96631.97;5116145;28;20138;-64
2023/07/15 01:04:13;;;;;;;5.32;3.20;;;;;;;21.49;65.48;96630.91;5116158;28;20101;-64
2023/07/15 01:06:41;;;;;;;10.25;3.40;;;;;;;21.44;65.10;96632.13;5116090;28;20047;-66
2023/07/15 01:09:09;;;;;;;8.63;3.58;;;;;;;21.41;64.99;96635.03;5116010;28;20058;-64
2023/07/15 01:11:37;;;;;;;7.53;3.67;;;;;;;21.38;65.65;96637.94;5116242;28;20044;-65
2023/07/15 01:14:04;;;;;;;7.05;3.75;;;;;;;21.36;65.99;96631.88;5115948;28;20048;-65
2023/07/15 01:16:32;;;;;;;8.73;3.35;;;;;;;21.33;66.73;96632.97;5115998;28;20055;-64
2023/07/15 01:19:00;;;;;;;5.18;3.47;;;;;;;21.31;66.13;96628.75;5115785;28;20047;-64
2023/07/15 01:21:29;;;;;;;7.03;3.28;;;;;;;21.24;65.94;96630.19;5115659;28;20048;-66
2023/07/15 01:23:57;;;;;;;8.30;3.65;;;;;;;21.22;66.83;96632.97;5115791;28;20130;-65
2023/07/15 01:26:24;;;;;;;6.30;3.60;;;;;;;21.25;67.15;96645.22;5115633;28;20553;-64
2023/07/15 01:28:51;;;;;;;5.10;3.33;;;;;;;21.25;67.39;96640.72;5115750;28;20100;-64
2023/07/15 01:31:19;;;;;;;4.47;3.28;;;;;;;21.19;67.50;96627.94;5115786;28;20044;-64
2023/07/15 01:33:47;;;;;;;5.85;3.35;;;;;;;21.21;67.57;96632.16;5115545;28;20481;-65
2023/07/15 01:36:14;;;;;;;5.65;3.03;;;;;;;21.16;67.13;96636.97;5115885;28;20044;-64
2023/07/15 01:38:41;;;;;;;6.32;3.58;;;;;;;21.13;67.42;96634.56;5115461;28;20091;-64
2023/07/15 01:41:10;;;;;;;5.70;3.13;;;;;;;20.95;65.39;96635.06;5114826;28;20051;-66
2023/07/15 01:43:37;;;;;;;5.57;3.65;;;;;;;21.02;66.50;96631.94;5115196;28;20062;-66
2023/07/15 01:46:04;;;;;;;8.70;3.42;;;;;;;21.10;66.53;96642.78;5115352;28;20044;-64
2023/07/15 01:48:31;;;;;;;6.25;3.35;;;;;;;21.10;66.57;96642.78;5115353;28;20040;-65
2023/07/15 01:50:58;;;;;;;4.90;3.97;;;;;;;21.06;67.51;96639.53;5115216;28;20083;-65
2023/07/15 01:53:25;;;;;;;11.50;4.38;;;;;;;21.03;67.66;96639.78;5115158;28;20134;-64
2023/07/15 01:55:52;;;;;;;6.47;3.65;;;;;;;20.98;67.80;96647.25;5115141;28;20499;-65
2023/07/15 01:58:21;;;;;;;5.32;3.33;;;;;;;20.96;68.67;96643.91;5115195;28;20076;-64
2023/07/15 02:00:48;;;;;;;5.13;3.80;;;;;;;20.96;68.28;96642.06;5114884;28;20047;-64
2023/07/15 02:03:16;;;;;;;6.28;3.60;;;;;;;20.90;68.09;96647.03;5114966;28;20487;-64
2023/07/15 02:05:44;;;;;;;7.00;3.70;;;;;;;20.83;68.48;96642.16;5114767;28;20408;-64
2023/07/15 02:08:11;;;;;;;5.20;3.75;;;;;;;20.84;68.74;96651.81;5114681;28;20408;-65
2023/07/15 02:10:38;;;;;;;7.70;3.15;;;;;;;20.78;68.08;96649.66;5114838;28;20043;-65
2023/07/15 02:13:05;;;;;;;6.22;3.90;;;;;;;20.74;68.65;96644.69;5114762;28;20116;-64
2023/07/15 02:15:34;;;;;;;8.63;3.70;;;;;;;20.69;68.45;96648.56;5114750;28;20503;-65
2023/07/15 02:18:00;;;;;;;5.30;3.40;;;;;;;20.64;68.93;96647.22;5114769;28;20047;-64
2023/07/15 02:20:27;;;;;;;8.45;3.75;;;;;;;20.61;68.58;96648.31;5114729;28;20477;-65
2023/07/15 02:22:54;;;;;;;5.30;3.25;;;;;;;20.49;68.23;96655.41;5114704;28;20051;-63
2023/07/15 02:25:21;;;;;;;8.88;4.03;;;;;;;20.29;69.64;96659.59;5114438;28;20044;-66
2023/07/15 02:27:50;;;;;;;9.13;4.05;;;;;;;20.20;69.82;96661.16;5114549;28;20113;-64
2023/07/15 02:30:19;;;;;;;6.68;3.55;;;;;;;20.10;69.65;96668.94;5114483;28;20047;-65
2023/07/15 02:32:48;;;;;;;6.78;3.92;;;;;;;20.16;70.22;96664.97;5114348;28;20070;-66
2023/07/15 02:35:15;;;;;;;6.72;3.28;;;;;;;20.15;69.59;96661.50;5114367;28;20043;-65
2023/07/15 02:37:43;;;;;;;4.75;3.25;;;;;;;20.16;70.17;96662.31;5114342;28;20079;-64
2023/07/15 02:40:11;;;;;;;4.68;3.72;;;;;;;20.17;69.33;96674.66;5114197;28;20119;-65
2023/07/15 02:42:38;;;;;;;7.55;3.75;;;;;;;20.20;69.63;96671.78;5114138;28;20083;-64
2023/07/15 02:45:07;;;;;;;7.10;3.88;;;;;;;20.19;70.11;96670.91;5114371;28;20130;-64
2023/07/15 02:47:35;;;;;;;7.05;3.60;;;;;;;20.24;69.42;96675.88;5114100;28;20051;-64
2023/07/15 02:50:04;;;;;;;6.57;4.03;;;;;;;20.27;70.06;96677.44;5114171;28;20130;-65
2023/07/15 02:52:32;;;;;;;9.50;3.77;;;;;;;20.29;69.72;96671.06;5114088;28;20044;-65
2023/07/15 02:55:01;;;;;;;5.93;3.92;;;;;;;20.16;69.39;96664.97;5113436;28;20271;-64
2023/07/15 02:57:28;;;;;;;7.10;4.10;;;;;;;20.13;69.75;96670.50;5114059;28;20067;-66
2023/07/15 02:59:55;;;;;;;5.25;3.83;;;;;;;20.16;69.56;96675.59;5113790;28;20040;-65
2023/07/15 03:02:23;;;;;;;6.55;4.22;;;;;;;20.12;69.84;96669.69;5113844;28;20409;-65
2023/07/15 03:04:50;;;;;;;7.30;4.00;;;;;;;20.11;69.93;96667.13;5113932;28;20079;-64
2023/07/15 03:07:19;;;;;;;9.07;3.80;;;;;;;20.11;70.27;96673.31;5113706;28;20055;-63
2023/07/15 03:09:46;;;;;;;5.85;3.90;;;;;;;20.16;69.99;96675.59;5113905;28;20093;-64
2023/07/15 03:12:13;;;;;;;4.90;3.65;;;;;;;20.18;69.48;96666.56;5113718;28;20054;-65
2023/07/15 03:14:43;;;;;;;6.80;3.67;;;;;;;20.13;69.78;96662.53;5113786;28;20508;-66
2023/07/15 03:17:10;;;;;;;8.33;4.00;;;;;;;20.10;70.16;96666.28;5113648;28;20048;-64
2023/07/15 03:19:38;;;;;;;4.45;3.50;;;;;;;20.03;69.67;96673.88;5113714;28;20048;-64
2023/07/15 03:22:06;;;;;;;4.55;3.40;;;;;;;20.03;70.76;96678.31;5113546;28;20043;-64
2023/07/15 03:24:35;;;;;;;6.93;3.75;;;;;;;20.06;70.24;96680.75;5113674;28;20047;-64
2023/07/15 03:27:03;;;;;;;4.88;3.38;;;;;;;20.13;70.29;96678.47;5113667;28;20047;-63
2023/07/15 03:29:30;;;;;;;12.15;4.15;;;;;;;20.20;70.82;96675.25;5113628;28;20477;-63
2023/07/15 03:31:57;;;;;;;8.13;3.97;;;;;;;20.19;70.74;96683.34;5113545;28;20486;-65
2023/07/15 03:34:24;;;;;;;5.43;3.65;;;;;;;20.23;70.03;96674.19;5113578;28;20122;-64
2023/07/15 03:36:51;;;;;;;5.20;3.80;;;;;;;20.26;69.97;96678.41;5113486;28;20441;-64
2023/07/15 03:39:19;;;;;;;9.50;4.00;;;;;;;20.34;70.26;96686.63;5113473;28;20043;-65
2023/07/15 03:41:48;;;;;;;6.30;3.92;;;;;;;20.41;70.17;96673.75;5113449;28;20122;-65
2023/07/15 03:44:15;;;;;;;7.72;3.67;;;;;;;20.51;70.07;96679.19;5113458;28;20047;-64
2023/07/15 03:46:42;;;;;;;5.00;3.50;;;;;;;20.63;69.54;96686.25;5113670;28;20079;-64
2023/07/15 03:49:09;;;;;;;5.32;3.70;;;;;;;20.80;70.06;96679.59;5113324;28;20048;-66
2023/07/15 03:51:36;;;;;;;5.35;3.58;;;;;;;21.09;69.43;96678.31;5113225;28;20047;-63
2023/07/15 03:54:05;;;;;;;6.75;3.72;;;;;;;21.35;68.69;96678.06;5113291;28;20134;-66
2023/07/15 03:56:32;;;;;;;10.13;3.72;;;;;;;21.69;67.69;96682.47;5113245;28;20078;-66
2023/07/15 03:59:01;;;;;;;6.40;3.90;;;;;;;22.02;66.77;96691.38;5113327;28;20409;-65
2023/07/15 04:01:28;;;;;;;4.32;3.42;;;;;;;22.41;65.52;96690.84;5113318;28;20067;-65
2023/07/15 04:03:55;;;;;;;4.50;2.95;;;;;;;22.76;64.42;96694.19;5113218;28;20051;-64
2023/07/15 04:06:22;;;;;;;5.40;3.42;;;;;;;23.15;62.71;96692.69;5116884;28;20072;-65
2023/07/15 04:08:50;;;;;;;6.15;2.95;;;;;;;23.41;61.58;96693.09;5117012;28;20043;-64
2023/07/15 04:11:18;;;;;;;5.45;3.15;;;;;;;23.69;60.81;96703.16;5117198;28;20416;-65
2023/07/15 04:17:08;;;;;;;4.32;3.28;;;;;;;24.40;59.17;96714.63;5117467;28;20082;-66
2023/07/15 04:19:35;;;;;;;6.93;3.33;;;;;;;24.74;57.81;96718.66;5117112;28;20135;-65
2023/07/15 04:22:02;;;;;;;7.65;3.00;;;;;;;25.04;56.69;96716.78;5116887;28;20123;-65
2023/07/15 04:24:29;;;;;;;6.47;3.00;;;;;;;25.35;55.44;96719.19;5116983;28;20048;-65
2023/07/15 04:26:56;;;;;;;7.57;3.20;;;;;;;25.57;55.49;96725.19;5116776;28;20086;-64
2023/07/15 04:29:23;;;;;;;6.82;3.15;;;;;;;25.81;54.37;96731.84;5116826;28;20443;-64
2023/07/15 04:31:50;;;;;;;5.13;3.03;;;;;;;26.05;53.40;96727.75;5116871;28;20126;-64
2023/07/15 04:34:19;;;;;;;7.18;3.42;;;;;;;26.40;51.94;96727.09;5116953;28;20054;-65
2023/07/15 04:36:46;;;;;;;3.85;2.78;;;;;;;26.72;53.03;96733.69;5116665;28;20550;-66
2023/07/15 04:39:13;;;;;;;5.35;3.30;;;;;;;27.00;51.65;96730.94;5116696;28;20455;-66
2023/07/15 04:41:40;;;;;;;8.00;2.70;;;;;;;27.19;50.62;96732.56;5116823;27;20043;-65
2023/07/15 04:44:07;;;;;;;5.78;3.60;;;;;;;27.46;49.28;96732.50;5116428;28;20051;-66
2023/07/15 04:46:34;;;;;;;6.13;3.70;;;;;;;27.72;49.57;96735.16;5116446;28;20056;-65
2023/07/15 04:49:01;;;;;;;7.45;3.22;;;;;;;27.97;49.33;96735.25;5116445;28;20055;-66
2023/07/15 04:51:30;;;;;;;7.53;3.50;;;;;;;28.22;47.79;96739.81;5116359;28;20071;-65
2023/07/15 04:53:57;;;;;;;7.13;3.08;;;;;;;28.39;46.83;96735.34;5116301;28;20097;-66
2023/07/15 04:56:24;;;;;;;10.38;3.33;;;;;;;28.56;45.84;96733.47;5116566;28;20043;-66
2023/07/15 04:58:52;;;;;;;8.52;3.58;;;;;;;28.84;45.74;96735.00;5116234;28;20054;-66
2023/07/15 05:01:19;;;;;;;4.18;3.38;;;;;;;29.14;46.31;96728.06;5116204;28;20043;-66
2023/07/15 05:03:46;;;;;;;7.75;3.33;;;;;;;29.38;47.07;96737.09;5116248;27;20059;-65
2023/07/15 05:06:14;;;;;;;6.85;3.13;;;;;;;29.64;45.48;96729.78;5116259;28;20043;-66
2023/07/15 05:08:42;;;;;;;8.10;3.15;;;;;;;29.86;45.86;96730.84;5115943;28;20143;-67
2023/07/15 05:11:12;;;;;;;8.55;3.20;;;;;;;30.06;46.81;96729.56;5115967;28;20093;-66
2023/07/15 05:13:39;;;;;;;3.92;3.08;;;;;;;30.31;46.72;96732.16;5115964;28;20093;-65
2023/07/15 05:16:06;;;;;;;9.13;3.33;;;;;;;30.61;46.77;96735.78;5115117;28;20097;-67
2023/07/15 05:18:33;;;;;;;6.20;3.10;;;;;;;30.81;47.38;96740.72;5115758;28;20043;-65
2023/07/15 05:21:01;;;;;;;6.53;2.85;;;;;;;31.05;46.61;96737.94;5115842;28;20079;-66
2023/07/15 05:23:31;;;;;;;5.65;3.30;;;;;;;31.23;45.07;96740.28;5115732;28;20541;-65
2023/07/15 05:25:59;;;;;;;5.63;3.30;;;;;;;31.46;44.60;96742.13;5115706;28;20051;-66
2023/07/15 05:28:30;;;;;;;7.57;3.70;;;;;;;31.68;44.44;96744.88;5115611;28;20054;-65
2023/07/15 05:30:58;;;;;;;7.68;3.47;;;;;;;31.86;44.47;96739.91;5115750;28;20071;-65
2023/07/15 05:33:25;;;;;;;4.97;3.47;;;;;;;32.10;43.49;96748.75;5115643;28;20039;-65
2023/07/15 05:35:54;;;;;;;8.07;3.95;;;;;;;32.34;42.19;96744.00;5115397;28;20428;-66
2023/07/15 05:38:23;;;;;;;6.85;4.03;;;;;;;32.53;41.89;96750.69;5115345;28;20429;-65
2023/07/15 05:40:50;;;;;;;6.45;3.28;;;;;;;32.81;40.65;96748.22;5115544;28;20047;-67
2023/07/15 05:43:19;;;;;;;8.25;3.55;;;;;;;32.71;38.26;96746.66;5115469;28;20047;-66
2023/07/15 05:45:46;;;;;;;12.70;3.10;;;;;;;32.64;37.68;96753.88;5115488;28;20428;-66
2023/07/15 05:48:14;;;;;;;6.10;3.45;;;;;;;32.36;38.75;96760.88;5115383;28;20051;-65
2023/07/15 05:50:41;;;;;;;7.97;3.53;;;;;;;31.62;39.38;96763.53;5115297;28;20048;-66
2023/07/15 05:53:08;;;;;;;4.45;2.90;;;;;;;31.31;40.24;96756.44;5115375;28;20131;-65
2023/07/15 05:55:37;;;;;;;8.85;3.42;;;;;;;31.04;39.41;96755.19;5115233;28;20405;-66
2023/07/15 05:58:09;;;;;;;7.22;3.70;;;;;;;30.96;40.82;96756.09;5115412;28;20481;-66
2023/07/15 06:00:38;;;;;;;9.95;3.53;;;;;;;30.92;40.52;96758.34;5115127;28;20556;-65
2023/07/15 06:03:05;;;;;;;5.13;3.13;;;;;;;30.62;40.77;96758.22;5115039;28;20131;-65
2023/07/15 06:05:32;;;;;;;3.47;3.10;;;;;;;30.11;41.76;96751.44;5114945;28;20047;-65
2023/07/15 06:07:59;;;;;;;8.15;3.13;;;;;;;30.22;42.33;96751.06;5114708;28;20108;-65
2023/07/15 06:10:27;;;;;;;8.65;3.47;;;;;;;30.60;42.54;96758.41;5114899;28;20478;-64
2023/07/15 06:12:54;;;;;;;10.70;3.40;;;;;;;30.72;42.24;96752.56;5114869;28;20048;-65
2023/07/15 06:15:21;;;;;;;8.50;3.58;;;;;;;30.53;40.60;96757.44;5114917;28;20065;-65
2023/07/15 06:17:51;;;;;;;14.00;3.63;;;;;;;30.59;42.50;96754.03;5114947;28;20580;-64
2023/07/15 06:20:19;;;;;;;8.45;3.67;;;;;;;30.88;40.96;96760.53;5114788;28;20043;-65
2023/07/15 06:22:46;;;;;;;9.85;3.63;;;;;;;30.89;40.70;96758.69;5114947;28;20055;-65
2023/07/15 06:25:16;;;;;;;10.02;3.47;;;;;;;30.98;40.34;96754.91;5114756;28;20740;-65
2023/07/15 06:27:43;;;;;;;6.07;3.40;;;;;;;30.79;41.10;96760.81;5114426;28;20048;-65
2023/07/15 06:30:11;;;;;;;7.93;3.45;;;;;;;30.74;40.94;96753.22;5114656;28;20082;-65
2023/07/15 06:32:41;;;;;;;6.70;3.50;;;;;;;30.81;41.15;96747.94;5114557;28;20119;-65
2023/07/15 06:35:10;;;;;;;7.43;3.35;;;;;;;30.94;40.96;96755.44;5114415;28;20047;-66
2023/07/15 06:37:37;;;;;;;9.65;3.60;;;;;;;30.85;39.96;96752.81;5114412;28;20421;-64
2023/07/15 06:40:05;;;;;;;8.00;3.40;;;;;;;30.49;41.67;96748.84;5114360;28;20047;-66
2023/07/15 06:42:33;;;;;;;7.55;3.33;;;;;;;30.65;42.24;96749.75;5114211;28;20135;-65
2023/07/15 06:45:00;;;;;;;10.70;3.55;;;;;;;30.95;39.94;96757.13;5114179;28;20052;-66
2023/07/15 06:47:28;;;;;;;10.25;3.10;;;;;;;31.47;40.43;96752.72;5114183;28;20094;-65
2023/07/15 06:49:55;;;;;;;8.02;3.97;;;;;;;31.86;39.91;96753.44;5114195;28;20134;-65
2023/07/15 06:52:23;;;;;;;6.05;3.80;;;;;;;32.18;39.65;96750.50;5114419;28;20050;-64
2023/07/15 06:54:51;;;;;;;10.55;3.42;;;;;;;32.24;38.75;96755.13;5114350;28;20491;-66
2023/07/15 06:57:19;;;;;;;8.65;3.78;;;;;;;32.13;38.83;96751.09;5113988;28;20043;-66
2023/07/15 06:59:46;;;;;;;7.05;3.40;;;;;;;32.11;39.74;96747.72;5114257;28;20537;-66
2023/07/15 07:02:13;;;;;;;8.98;3.70;;;;;;;31.93;39.66;96750.84;5113907;28;20075;-65
2023/07/15 07:04:41;;;;;;;9.02;3.60;;;;;;;31.96;39.32;96746.94;5114040;28;20091;-65
2023/07/15 07:07:08;;;;;;;7.97;3.78;;;;;;;31.78;39.59;96751.69;5113554;28;20097;-66
2023/07/15 07:09:37;;;;;;;6.32;3.63;;;;;;;31.59;39.65;96750.41;5113762;28;20094;-65
2023/07/15 07:12:05;;;;;;;6.18;3.55;;;;;;;31.68;39.96;96758.38;5113746;28;20055;-66
2023/07/15 07:14:32;;;;;;;9.50;3.17;;;;;;;31.98;39.90;96752.97;5113674;28;20256;-65
2023/07/15 07:16:59;;;;;;;5.90;3.20;;;;;;;32.31;40.86;96760.63;5113842;28;20119;-65
2023/07/15 07:19:26;;;;;;;11.07;3.92;;;;;;;32.64;39.01;96754.75;5113641;28;20044;-65
2023/07/15 07:21:54;;;;;;;14.82;3.67;;;;;;;32.76;39.73;96757.75;5113872;28;20044;-65
2023/07/15 07:24:22;;;;;;;5.70;3.63;;;;;;;32.67;37.86;96761.63;5113589;28;20086;-65
2023/07/15 07:26:51;;;;;;;9.93;3.72;;;;;;;32.67;38.58;96758.91;5113587;28;20043;-65
2023/07/15 07:29:18;;;;;;;9.23;3.90;;;;;;;32.73;39.60;96755.44;5113780;28;20527;-66
2023/07/15 07:31:46;;;;;;;8.43;3.92;;;;;;;32.74;38.75;96753.56;5113467;28;20050;-66
2023/07/15 07:34:13;;;;;;;18.80;4.03;;;;;;;32.82;37.87;96753.44;5113589;28;20102;-66
2023/07/15 07:36:41;;;;;;;10.70;4.72;;;;;;;32.66;37.27;96751.84;5113466;28;20048;-65
2023/07/15 07:39:08;;;;;;;9.63;4.18;;;;;;;32.53;38.33;96760.66;5113762;28;20075;-66
2023/07/15 07:41:35;;;;;;;6.97;4.25;;;;;;;32.27;38.64;96756.63;5117566;28;20136;-65
2023/07/15 07:44:04;;;;;;;11.82;4.15;;;;;;;32.38;39.62;96757.97;5117604;28;20051;-67
2023/07/15 07:46:32;;;;;;;12.57;4.47;;;;;;;32.48;37.35;96755.81;5117743;28;20116;-66
2023/07/15 07:48:59;;;;;;;8.02;4.03;;;;;;;32.42;38.76;96747.63;5117658;28;20602;-66
2023/07/15 07:51:27;;;;;;;10.73;3.70;;;;;;;32.44;39.63;96759.91;5117788;28;20093;-66
2023/07/15 07:53:55;;;;;;;14.30;4.00;;;;;;;32.66;39.11;96754.56;5117499;28;20054;-66
2023/07/15 07:56:23;;;;;;;9.18;3.70;;;;;;;32.76;37.88;96756.91;5117535;27;20113;-66
2023/07/15 07:58:54;;;;;;;12.40;3.78;;;;;;;32.82;39.07;96749.88;5117470;28;20043;-66
2023/07/15 08:01:25;;;;;;;6.65;2.95;;;;;;;32.48;37.36;96757.69;5117262;28;20054;-66
2023/07/15 08:03:55;;;;;;;8.23;3.88;;;;;;;32.70;38.23;96752.28;5117534;27;20043;-66
2023/07/15 08:06:23;;;;;;;8.95;3.95;;;;;;;32.90;38.23;96755.16;5117165;28;20116;-66
2023/07/15 08:08:51;;;;;;;7.40;3.60;;;;;;;32.92;36.98;96752.25;5116969;28;20509;-65
2023/07/15 08:11:19;;;;;;;6.40;3.50;;;;;;;33.01;39.61;96753.75;5117271;28;20054;-66
2023/07/15 08:13:46;;;;;;;8.90;3.60;;;;;;;33.02;40.10;96756.28;5117164;28;20068;-65
2023/07/15 08:19:10;;;;;;;10.10;3.60;;;;;;;32.93;37.52;96762.03;5173239;27;20384;-66
2023/07/15 08:21:38;;;;;;;7.60;3.28;;;;;;;32.80;36.54;96758.19;5172988;27;20046;-66
2023/07/15 08:24:06;;;;;;;9.07;3.78;;;;;;;32.85;39.40;96750.34;5172986;27;20089;-67
2023/07/15 08:26:33;;;;;;;10.77;3.38;;;;;;;32.75;37.66;96757.94;5172848;27;20056;-66
2023/07/15 08:29:03;;;;;;;8.57;3.88;;;;;;;32.34;38.46;96751.28;5172832;27;20107;-65
2023/07/15 08:31:30;;;;;;;7.07;3.65;;;;;;;32.27;39.01;96749.34;5172880;27;20053;-66
2023/07/15 08:33:57;;;;;;;7.78;3.58;;;;;;;32.35;38.67;96750.28;5172677;27;20509;-66
2023/07/15 08:36:27;;;;;;;6.25;3.38;;;;;;;32.12;38.46;96748.56;5172646;27;20078;-66
2023/07/15 08:38:55;;;;;;;6.73;3.37;;;;;;;32.08;37.41;96745.41;5172484;27;20049;-66
2023/07/15 08:41:25;;;;;;;11.43;3.55;;;;;;;32.34;38.60;96751.28;5172647;27;20038;-66
2023/07/15 08:43:54;;;;;;;6.35;3.40;;;;;;;32.24;38.07;96747.00;5172568;27;20046;-66
2023/07/15 08:46:28;;;;;;;10.27;4.28;;;;;;;32.25;37.92;96742.44;5172504;27;20089;-66
2023/07/15 08:48:57;;;;;;;7.45;3.35;;;;;;;32.43;39.21;96741.16;5172411;27;20061;-66
2023/07/15 08:51:36;;;;;;;7.82;3.60;;;;;;;32.48;37.72;96744.16;5172321;27;20047;-66
2023/07/15 08:54:05;;;;;;;8.68;3.50;;;;;;;32.30;36.45;96739.16;5172381;27;20042;-66
2023/07/15 08:56:34;;;;;;;12.57;4.10;;;;;;;32.35;37.14;96742.97;5172380;27;20089;-66
2023/07/15 08:59:04;;;;;;;8.95;3.70;;;;;;;32.20;37.12;96745.72;5172258;27;20519;-66
2023/07/15 09:01:31;;;;;;;5.50;3.42;;;;;;;32.06;37.95;96746.63;5172267;27;20046;-66
2023/07/15 09:03:59;;;;;;;9.45;3.47;;;;;;;32.01;37.35;96739.91;5172293;27;20046;-65
2023/07/15 09:06:28;;;;;;;9.15;4.03;;;;;;;32.09;37.55;96740.84;5172188;27;20046;-66
2023/07/15 09:08:56;;;;;;;14.82;3.70;;;;;;;32.23;37.00;96741.81;5172125;27;20056;-66
2023/07/15 09:11:27;;;;;;;15.32;3.78;;;;;;;32.33;37.33;96746.91;5172068;27;20053;-65
2023/07/15 09:13:55;;;;;;;8.77;3.47;;;;;;;32.41;36.82;96738.66;5171959;27;20493;-65
2023/07/15 09:16:24;;;;;;;8.35;3.88;;;;;;;32.66;39.96;96738.31;5171929;27;20483;-66
2023/07/15 09:18:52;;;;;;;11.63;3.88;;;;;;;32.93;38.62;96741.22;5171322;27;20043;-66
2023/07/15 09:21:20;;;;;;;8.82;3.55;;;;;;;33.36;37.99;96751.13;5171896;27;20095;-66
2023/07/15 09:23:49;;;;;;;8.57;3.58;;;;;;;33.59;36.35;96749.19;5171235;27;20483;-66
2023/07/15 09:26:19;;;;;;;10.57;3.80;;;;;;;33.56;34.41;96742.28;5171681;27;20043;-66
2023/07/15 09:28:49;;;;;;;4.90;3.15;;;;;;;33.10;35.58;96743.66;5167528;27;20046;-66
2023/07/15 09:31:25;;;;;;;7.75;3.80;;;;;;;33.13;38.34;96735.97;5157839;27;20086;-66
2023/07/15 09:34:02;;;;;;;10.20;3.65;;;;;;;33.37;37.16;96739.25;5157769;27;20087;-66
2023/07/15 09:36:31;;;;;;;6.55;3.90;;;;;;;33.52;37.33;96741.84;5157580;27;20090;-66
2023/07/15 09:39:11;;;;;;;11.60;3.77;;;;;;;33.42;34.45;96741.38;5157566;27;20053;-66
2023/07/15 09:41:38;;;;;;;10.23;3.53;;;;;;;33.46;36.79;96745.34;5157535;27;20046;-66
2023/07/15 09:44:06;;;;;;;3.50;3.20;;;;;;;33.65;36.48;96740.28;5157594;27;20138;-66
2023/07/15 09:46:34;;;;;;;5.35;3.42;;;;;;;33.72;33.94;96732.16;5157481;27;20049;-66
2023/07/15 09:49:02;;;;;;;7.25;3.38;;;;;;;33.69;38.12;96729.84;5157306;27;20487;-66
2023/07/15 09:51:30;;;;;;;7.40;3.45;;;;;;;33.62;35.84;96735.25;5157336;27;20078;-66
2023/07/15 09:53:59;;;;;;;7.88;3.90;;;;;;;33.62;32.77;96732.53;5157399;27;20126;-65
2023/07/15 09:56:31;;;;;;;8.68;3.97;;;;;;;33.43;35.54;96737.63;5157317;27;20099;-66
2023/07/15 09:59:08;;;;;;;5.95;3.47;;;;;;;33.27;35.31;96741.47;5157132;27;20058;-65
2023/07/15 10:01:41;;;;;;;11.32;4.15;;;;;;;33.26;34.85;96737.13;5157064;27;20042;-66
2023/07/15 10:04:18;;;;;;;5.68;3.50;;;;;;;33.40;35.29;96728.00;5157245;27;20081;-66
2023/07/15 10:06:46;;;;;;;11.07;3.38;;;;;;;33.62;34.71;96732.53;5157073;27;20046;-66
2023/07/15 10:09:15;;;;;;;7.80;3.70;;;;;;;33.62;34.69;96727.13;5157065;27;20047;-67
2023/07/15 10:11:44;;;;;;;9.10;3.80;;;;;;;33.55;37.41;96724.31;5156994;27;20403;-65
2023/07/15 10:14:11;;;;;;;8.95;3.80;;;;;;;33.46;35.39;96722.81;5156895;27;20043;-66
2023/07/15 10:16:40;;;;;;;12.43;4.18;;;;;;;33.35;35.27;96719.63;5156915;27;20078;-66
2023/07/15 10:19:43;;;;;;;11.05;4.20;;;;;;;33.65;38.35;96719.41;5115402;28;20493;-65
2023/07/15 10:22:10;;;;;;;7.85;4.43;;;;;;;33.72;36.37;96716.72;5115548;28;20049;-66
2023/07/15 10:24:40;;;;;;;6.57;3.70;;;;;;;33.47;35.75;96717.19;5115398;28;20079;-66
2023/07/15 10:27:10;;;;;;;13.60;4.13;;;;;;;33.20;34.63;96722.47;5115346;28;20562;-66
2023/07/15 10:29:39;;;;;;;8.20;4.18;;;;;;;33.12;36.26;96711.78;5115378;28;20493;-66
2023/07/15 10:32:10;;;;;;;8.77;4.07;;;;;;;33.35;35.95;96705.28;5115439;28;20051;-66
2023/07/15 10:34:40;;;;;;;9.93;4.25;;;;;;;33.53;36.57;96710.16;5115514;28;20100;-66
2023/07/15 10:37:11;;;;;;;11.85;4.88;;;;;;;33.77;35.53;96700.69;5115386;28;20116;-66
2023/07/15 10:39:38;;;;;;;12.57;4.47;;;;;;;34.06;35.03;96692.41;5115059;28;20047;-66
2023/07/15 10:42:10;;;;;;;10.13;4.45;;;;;;;33.92;35.47;96699.69;5114059;28;20054;-66
2023/07/15 10:44:41;;;;;;;8.70;4.45;;;;;;;34.16;35.96;96695.59;5115143;28;20044;-65
2023/07/15 10:47:10;;;;;;;10.77;4.68;;;;;;;34.26;34.37;96695.22;5115207;27;20047;-65
2023/07/15 10:49:38;;;;;;;9.85;5.13;;;;;;;34.38;34.72;96681.03;5115142;28;20083;-66
2023/07/15 10:52:06;;;;;;;13.68;4.93;;;;;;;34.06;34.98;96688.84;5115069;28;20079;-66
2023/07/15 10:54:37;;;;;;;10.05;5.00;;;;;;;33.92;32.74;96694.28;5114993;28;20043;-66
2023/07/15 10:57:09;;;;;;;10.30;4.57;;;;;;;33.60;35.04;96689.38;5114782;28;20385;-66
2023/07/15 10:59:37;;;;;;;7.35;3.90;;;;;;;33.76;37.76;96688.16;5114714;28;20063;-66
2023/07/15 11:02:05;;;;;;;14.00;4.72;;;;;;;33.53;35.06;96675.75;5114734;28;20082;-66
2023/07/15 11:04:33;;;;;;;6.72;4.05;;;;;;;33.65;37.12;96673.31;5114784;28;20093;-66
2023/07/15 11:07:01;;;;;;;16.92;5.07;;;;;;;33.57;35.52;96664.50;5114658;28;20123;-66
2023/07/15 11:09:29;;;;;;;8.38;4.80;;;;;;;33.44;36.59;96673.41;5114745;28;20048;-65
2023/07/15 11:11:58;;;;;;;8.65;4.55;;;;;;;33.31;35.24;96671.50;5114483;28;20484;-66
2023/07/15 11:14:27;;;;;;;6.68;4.82;;;;;;;33.15;35.37;96678.91;5114560;28;20058;-65
2023/07/15 11:16:55;;;;;;;10.95;4.70;;;;;;;33.21;36.99;96669.97;5118226;27;20104;-66
2023/07/15 11:19:23;;;;;;;6.65;4.38;;;;;;;33.36;35.54;96663.59;5155624;27;20078;-66
2023/07/15 11:21:53;;;;;;;7.28;4.72;;;;;;;33.34;34.83;96668.34;5155781;27;20079;-66
2023/07/15 11:24:22;;;;;;;9.90;4.20;;;;;;;33.10;37.38;96663.25;5155669;27;20057;-66
2023/07/15 11:26:50;;;;;;;9.73;4.57;;;;;;;33.07;36.93;96654.69;5155615;27;20457;-66
2023/07/15 11:29:21;;;;;;;11.20;4.63;;;;;;;33.30;35.89;96654.38;5155461;27;20060;-66
2023/07/15 11:31:50;;;;;;;14.10;4.72;;;;;;;33.55;36.51;96656.56;5155452;27;20096;-66
2023/07/15 11:34:18;;;;;;;11.07;4.63;;;;;;;33.60;35.30;96658.69;5155547;27;20087;-66
2023/07/15 11:36:47;;;;;;;5.57;4.55;;;;;;;33.61;36.20;96650.38;5155517;27;20038;-66
2023/07/15 11:39:15;;;;;;;12.43;4.88;;;;;;;33.74;36.05;96648.75;5155413;27;20103;-66
2023/07/15 11:41:43;;;;;;;9.80;5.03;;;;;;;33.78;36.64;96645.44;5155335;27;20047;-66
2023/07/15 11:44:12;;;;;;;8.52;4.53;;;;;;;33.81;34.98;96646.03;5155237;27;20053;-66